Create Custom Reports and Graphics: Custom Report

Chair 1 Top - 9,875ft

Current Conditions

3/4/24 2:15 PM (-08:00)
Updated Every 15 Minutes
Temp 16.5 °F   4.8
WindChill -0.1 °F   15.5
Daily Min Temp 9.9 °F   0.2
Time of Min Temp 0712
Daily Max Temp 16.7 °F   3.2
Time of Max Temp 1359
Wind Dir S | 174 °
Wind Spd 19.4 mph   36.8
Wind Gust 36.4 mph   56.7
Daily Max Wind 117.6 mph   19.8
Time of Max Wind 0357
Max Wind Dir SW | 228 °
RH 96 %   3
Dew Pt 15.5 °F   5.5
Wet Bulb 16.2 °F   4.8
WetB Hrs <28F 13.8 hrs   0.5
Yest MinT 9.7 °F
Yest MaxT 13.5 °F
Yest MaxGst 137.4 mph
Calm: 0.0%
Calm: 0.0%

Last 7 Days

Chair 1 Top - 9,875ft

Hourly Data | America/Los_Angeles
as of 3/5/24 6:29 AM PST
Date & Time Temp (°F) WindChill (°F) RH (%) Dew Pt (°F) Wet Bulb (°F) Wind Dir (°) Wind Spd (mph) Wind Gust (mph) Wind Gst Dir (°) Daily Min Temp (°F) Daily Max Temp (°F) Daily Max Wind (mph)
3/4/24 - 1400 16.4 0.1 96 15.4 16.1 S | 183 18.4 41.4 W | 275 9.9 16.7 117.6
3/4/24 - 1300 15.6 -3.1 96 14.6 15.4 S | 185 24.7 49.6 SSW | 210 9.9 16.4 117.6
3/4/24 - 1200 13.9 -7.7 96 13.0 13.7 S | 181 32.7 58.9 W | 261 9.9 14.8 117.6
3/4/24 - 1100 11.5 -13.4 95 9.8 11.3 S | 189 42.8 70.6 S | 191 9.9 12.3 117.6
3/4/24 - 1000 11.5 -15.0 93 9.8 11.3 SSW | 193 51.4 77.9 SSW | 193 9.9 12.3 117.6
3/4/24 - 0900 10.6 -17.0 92 8.8 10.4 SSW | 196 55.3 82.4 SW | 221 9.9 12.3 117.6
3/4/24 - 0800 10.1 -17.7 92 8.2 9.9 SSW | 201 55.3 87.9 SW | 231 9.9 12.3 117.6
3/4/24 - 0700 10.3 -17.6 92 8.4 10.1 SSW | 200 56.5 91.0 SSW | 205 10.0 12.3 117.6
3/4/24 - 0600 11.1 -16.8 92 9.3 10.9 SW | 214 58.8 113.1 SSW | 208 10.8 12.3 117.6
3/4/24 - 0500 11.4 -19.0 92 9.7 11.2 SW | 226 76.8 117.0 SW | 226 11.4 12.3 117.6
3/4/24 - 0400 11.8 -18.6 93 10.0 11.5 SW | 224 78.0 117.6 SW | 228 11.6 12.3 117.6
3/4/24 - 0300 12.1 -14.2 93 10.4 11.8 SW | 216 51.4 103.8 WSW | 247 11.7 12.3 111.0
3/4/24 - 0200 12.2 -15.2 93 10.5 11.9 SW | 224 58.4 107.6 SW | 235 12.1 12.3 111.0
3/4/24 - 0100 12.2 -15.1 93 10.5 11.9 SW | 226 57.5 111.0 SW | 230 12.1 12.3 111.0
3/4/24 - 0000 12.0 -13.9 93 10.3 11.7 SW | 224 48.8 99.0 W | 275 9.7 13.5 137.4
3/3/24 - 2300 11.8 -13.2 93 10.1 11.5 SW | 217 43.9 99.1 SW | 228 9.7 13.5 137.4
3/3/24 - 2200 12.2 -12.3 93 10.5 11.9 SW | 216 42.0 98.8 SSW | 207 9.7 13.5 137.4
3/3/24 - 2100 12.4 -13.6 93 10.7 12.1 SW | 225 50.0 96.1 SW | 223 9.7 13.5 137.4
3/3/24 - 2000 12.4 -14.8 93 10.8 12.1 SW | 224 57.9 111.2 SW | 219 9.7 13.5 137.4
3/3/24 - 1900 12.2 -13.5 93 10.5 11.9 SW | 220 48.1 89.5 WSW | 258 9.7 13.5 137.4
3/3/24 - 1800 12.6 -14.8 93 11.0 12.3 SW | 228 59.1 111.2 WSW | 258 9.7 13.5 137.4
3/3/24 - 1700 12.7 -11.0 93 11.0 12.4 SSW | 193 39.4 123.0 WSW | 248 9.7 13.5 137.4
3/3/24 - 1600 12.4 -14.5 93 10.8 12.2 SW | 223 56.3 110.7 SSW | 205 9.7 13.5 137.4
3/3/24 - 1500 12.1 -14.6 93 10.4 11.8 SW | 225 53.4 107.8 W | 265 9.7 13.5 137.4
3/3/24 - 1400 11.4 -16.6 92 9.6 11.1 SW | 223 59.6 124.3 WSW | 250 9.7 13.5 137.4
3/3/24 - 1300 11.2 -15.4 92 9.4 11.0 SW | 216 50.8 124.7 SW | 231 9.7 13.5 137.4
3/3/24 - 1200 11.0 -15.4 92 9.2 10.8 SSW | 210 49.7 130.5 SW | 226 9.7 13.5 137.4
3/3/24 - 1100 11.1 -14.6 92 9.3 10.8 SSW | 203 46.0 111.6 WSW | 248 9.7 13.5 137.4
3/3/24 - 1000 10.9 -15.2 92 9.1 10.7 SSW | 211 47.8 121.1 W | 274 9.7 13.5 137.4
3/3/24 - 0900 11.0 -15.4 92 9.2 10.8 SSW | 210 50.1 137.4 SW | 223 9.7 13.5 137.4
3/3/24 - 0800 11.6 -13.5 93 9.8 11.3 SSW | 199 43.9 117.5 SW | 230 9.7 13.5 129.6
3/3/24 - 0700 11.3 -15.0 92 9.6 11.1 SSW | 200 49.9 118.4 SW | 219 9.7 13.5 129.6
3/3/24 - 0600 11.1 -15.1 92 9.3 10.8 SSW | 198 48.6 118.2 SW | 227 9.7 13.5 129.6
3/3/24 - 0500 10.3 -13.7 92 8.5 10.1 SSW | 192 37.0 111.8 SSE | 167 9.7 13.5 129.6
3/3/24 - 0400 10.2 -11.7 92 8.3 10.0 SSE | 159 28.9 91.6 S | 186 9.7 13.5 129.6
3/3/24 - 0300 10.6 -13.6 92 8.7 10.3 S | 187 38.0 121.5 W | 272 10.2 13.5 129.6
3/3/24 - 0200 12.0 -14.8 93 10.3 11.7 WSW | 248 54.2 129.6 W | 263 11.5 13.5 129.6
3/3/24 - 0100 13.0 -14.0 93 11.4 12.7 WSW | 258 58.0 125.5 WSW | 248 12.4 13.5 125.5
3/3/24 - 0000 13.7 -11.7 94 12.2 13.4 SW | 228 50.8 135.8 W | 263 9.5 19.5 169.5
3/2/24 - 2300 13.2 -9.4 94 11.7 12.9 S | 187 35.9 86.7 SSE | 162 9.5 19.5 169.5
3/2/24 - 2200 12.2 -12.8 93 10.6 12.0 SSW | 198 45.2 109.1 WSW | 244 9.5 19.5 169.5
3/2/24 - 2100 12.3 -12.6 93 10.7 12.1 SSW | 192 44.9 99.4 W | 265 9.5 19.5 169.5
3/2/24 - 2000 11.5 -12.5 93 9.8 11.3 S | 181 39.3 90.2 SW | 214 9.5 19.5 169.5
3/2/24 - 1900 10.4 -14.6 92 8.6 10.2 S | 175 41.6 104.0 S | 180 9.5 19.5 169.5
3/2/24 - 1800 9.9 -13.9 92 7.9 9.7 SSW | 204 35.4 90.1 SSW | 198 9.5 19.5 169.5
3/2/24 - 1700 10.0 -13.6 92 8.2 9.8 S | 179 35.1 83.8 SSW | 212 9.6 19.5 169.5
3/2/24 - 1600 10.1 -14.4 92 8.2 9.9 S | 184 38.5 106.1 SSW | 213 9.6 19.5 169.5
3/2/24 - 1500 10.0 -16.2 92 8.1 9.8 SW | 229 46.2 128.1 W | 275 9.6 19.5 169.5
3/2/24 - 1400 10.5 -19.4 92 8.6 10.3 W | 259 69.8 161.2 WSW | 244 9.7 19.5 169.5
3/2/24 - 1300 10.0 -15.9 92 8.1 9.8 SSW | 213 44.6 153.6 WSW | 247 9.7 19.5 169.5
3/2/24 - 1200 10.6 -15.0 92 8.7 10.4 WSW | 241 44.5 125.8 W | 278 9.7 19.5 169.5
3/2/24 - 1100 11.3 -15.7 92 9.5 11.0 WSW | 244 53.5 137.6 W | 273 11.0 19.5 169.5
3/2/24 - 1000 11.7 -12.5 93 10.0 11.4 S | 186 39.8 102.9 S | 185 11.1 19.5 169.5
3/2/24 - 0900 11.7 -13.6 93 10.0 11.4 SW | 236 45.6 121.6 W | 261 11.1 19.5 169.5
3/2/24 - 0800 11.5 -16.0 93 9.8 11.3 WSW | 243 57.7 169.5 W | 274 11.1 19.5 169.5
3/2/24 - 0700 13.5 -13.7 94 12.0 13.2 WSW | 249 60.8 150.0 WSW | 258 12.6 19.5 167.7
3/2/24 - 0600 14.2 -13.4 94 12.8 13.9 WSW | 250 65.8 163.0 WSW | 250 13.3 19.5 167.7
3/2/24 - 0500 17.0 -9.7 95 15.8 16.6 WSW | 239 68.2 167.7 W | 276 15.6 19.5 167.7
3/2/24 - 0400 18.6 -4.4 96 17.7 18.3 SSW | 193 48.2 138.4 WSW | 245 18.0 19.5 138.4
3/2/24 - 0300 18.9 -3.2 96 18.0 18.6 SSW | 192 44.3 131.4 WSW | 251 18.8 19.5 131.4
3/2/24 - 0200 19.0 -1.4 96 18.1 18.7 SSE | 155 35.5 110.7 SSW | 206 18.8 19.5 110.7
3/2/24 - 0100 19.2 -1.4 96 18.3 18.9 SSE | 154 36.8 108.5 WSW | 247 18.9 19.5 108.5
3/2/24 - 0000 18.7 -2.4 96 17.9 18.4 S | 189 38.9 117.4 W | 270 18.0 22.0 117.4
3/1/24 - 2300 18.9 -1.5 96 18.0 18.6 SE | 131 35.6 92.2 SW | 229 18.0 22.0 104.8
3/1/24 - 2200 18.9 -1.2 96 18.0 18.6 SSE | 160 34.0 93.6 SW | 234 18.0 22.0 104.8
3/1/24 - 2100 18.6 -1.6 96 17.6 18.2 ESE | 110 33.8 67.4 WNW | 293 18.0 22.0 104.8
3/1/24 - 2000 18.3 -1.3 96 17.3 18.0 SE | 140 31.1 69.2 E | 80 18.0 22.0 104.8
3/1/24 - 1900 18.6 -1.3 96 17.6 18.2 E | 86 32.7 92.5 S | 172 18.0 22.0 104.8
3/1/24 - 1800 19.5 -0.1 97 18.7 19.2 S | 186 33.0 98.9 WSW | 245 18.2 22.0 104.8
3/1/24 - 1700 19.2 -1.5 96 18.3 18.9 SE | 138 37.7 104.8 ENE | 63 18.3 22.0 104.8
3/1/24 - 1600 21.2 2.2 97 20.6 20.9 S | 169 33.2 83.7 SSW | 195 18.6 22.0 95.5
3/1/24 - 1500 21.5 3.1 98 20.9 21.2 SE | 125 31.1 64.1 WSW | 249 18.6 22.0 95.5
3/1/24 - 1400 21.4 2.8 98 20.8 21.2 SSW | 194 32.1 95.5 SW | 231 18.6 22.0 95.5
3/1/24 - 1300 21.0 3.7 97 20.4 20.7 S | 183 26.0 67.5 S | 186 18.6 21.4 76.1
3/1/24 - 1200 20.9 4.4 97 20.2 20.6 SSE | 153 23.2 59.6 WSW | 257 18.6 21.2 76.1
3/1/24 - 1100 20.3 2.4 97 19.6 20.0 SE | 132 27.2 76.1 WNW | 288 18.6 20.8 76.1
3/1/24 - 1000 19.8 2.3 97 19.0 19.5 SE | 134 25.4 65.1 E | 81 18.6 20.0 73.4
3/1/24 - 0900 19.7 3.1 97 18.9 19.4 SE | 141 22.4 64.6 WSW | 255 18.6 20.0 73.4
3/1/24 - 0800 19.3 2.1 96 18.5 19.0 ESE | 121 23.8 71.9 W | 270 18.6 19.5 73.4
3/1/24 - 0700 19.1 1.6 96 18.2 18.8 SSE | 166 24.3 69.0 SSW | 192 18.6 19.5 73.4
3/1/24 - 0600 18.8 2.4 96 17.9 18.5 ESE | 113 20.9 61.4 W | 259 18.6 19.5 73.4
3/1/24 - 0500 19.0 1.6 96 18.1 18.6 ESE | 106 23.8 56.2 NE | 54 18.6 19.5 73.4
3/1/24 - 0400 18.9 1.5 96 18.0 18.6 ESE | 119 24.1 59.0 W | 274 18.6 19.5 73.4
3/1/24 - 0300 19.1 1.7 96 18.2 18.8 E | 99 23.9 50.7 S | 184 18.9 19.5 73.4
3/1/24 - 0200 19.2 3.0 96 18.4 18.9 SE | 144 20.7 51.2 WSW | 246 18.9 19.5 73.4
3/1/24 - 0100 19.1 2.0 96 18.2 18.8 S | 186 23.2 73.4 SW | 227 18.9 19.4 73.4
3/1/24 - 0000 19.9 0.6 97 19.1 19.6 SSW | 208 32.2 92.4 SSW | 206 19.3 24.2 104.6
2/29/24 - 2300 20.3 -0.3 97 19.5 20.0 SW | 234 38.7 104.6 WSW | 255 19.6 24.2 104.6
2/29/24 - 2200 21.3 1.7 97 20.6 21.0 SW | 224 35.8 92.6 SW | 228 19.9 24.2 96.5
2/29/24 - 2100 21.6 2.4 98 21.0 21.3 WSW | 237 34.4 89.8 WSW | 243 19.9 24.2 96.5
2/29/24 - 2000 21.7 4.3 98 21.2 21.4 SSW | 212 27.4 81.7 SSW | 198 19.9 24.2 96.5
2/29/24 - 1900 22.3 4.7 98 21.8 22.0 SW | 236 28.8 64.6 WNW | 291 19.9 24.2 96.5
2/29/24 - 1800 22.7 3.9 98 22.2 22.4 SSW | 207 34.6 93.0 SW | 219 19.9 24.2 96.5
2/29/24 - 1700 22.8 5.2 98 22.3 22.5 SSE | 168 29.3 96.5 SSW | 213 19.9 24.2 96.5
2/29/24 - 1600 22.9 6.0 98 22.5 22.7 S | 184 27.3 89.8 S | 190 19.9 24.2 89.8
2/29/24 - 1500 23.5 7.0 98 23.1 23.2 S | 184 26.0 74.1 SW | 232 19.9 24.2 83.3
2/29/24 - 1400 23.9 6.3 98 23.6 23.7 S | 188 31.4 79.4 S | 190 19.9 24.2 83.3
2/29/24 - 1300 23.6 9.0 98 23.2 23.3 S | 173 19.8 80.2 SSW | 197 19.9 24.1 83.3
2/29/24 - 1200 22.5 7.0 98 22.0 22.2 SSW | 200 21.8 71.8 WNW | 297 19.9 23.8 83.3
2/29/24 - 1100 21.8 5.9 97 21.1 21.4 SSW | 202 22.2 83.3 WNW | 286 19.9 23.8 83.3
2/29/24 - 1000 20.8 3.8 95 19.6 20.3 SSW | 199 24.5 80.6 W | 275 19.9 23.8 80.6
2/29/24 - 0900 20.3 3.9 93 18.6 19.7 S | 187 22.2 65.7 WNW | 292 19.9 23.8 65.7
2/29/24 - 0800 21.0 5.7 84 16.8 19.8 SW | 214 19.7 60.9 WNW | 287 20.7 23.8 61.6
2/29/24 - 0700 21.3 6.4 81 16.5 19.9 S | 190 18.8 56.4 SSW | 208 20.7 23.8 61.6
2/29/24 - 0600 21.2 5.8 82 16.7 19.9 S | 180 20.1 57.7 W | 269 20.7 23.8 61.6
2/29/24 - 0500 21.0 3.5 86 17.5 19.9 SSW | 197 26.7 61.6 SSW | 195 20.7 23.8 61.6
2/29/24 - 0400 21.7 6.8 81 16.8 20.2 S | 176 19.1 57.1 WSW | 242 21.3 23.8 60.4
2/29/24 - 0300 22.2 10.7 81 17.2 20.6 S | 191 11.5 36.0 SSW | 206 21.8 23.8 60.4
2/29/24 - 0200 22.7 11.6 78 16.9 21.0 SSW | 197 11.0 43.8 SSW | 200 22.4 23.8 60.4
2/29/24 - 0100 23.4 8.6 76 16.8 21.4 SSW | 211 20.3 60.4 SSW | 208 23.2 23.8 60.4
2/29/24 - 0000 23.3 10.3 86 19.7 22.1 SSW | 198 15.6 44.0 WSW | 245 23.2 33.2 58.6
2/28/24 - 2300 23.5 10.5 91 21.2 22.7 SSW | 207 15.5 39.7 S | 180 23.3 33.2 58.6
2/28/24 - 2200 23.5 9.2 93 21.7 22.8 SW | 225 18.8 48.6 WSW | 244 23.3 33.2 58.6
2/28/24 - 2100 23.7 8.0 97 23.0 23.4 WSW | 254 23.5 58.6 W | 275 23.4 33.2 58.6
2/28/24 - 2000 24.2 9.0 96 23.2 23.8 SW | 228 22.5 54.1 W | 276 23.9 33.2 58.0
2/28/24 - 1900 25.0 10.8 97 24.3 24.6 SW | 232 20.0 53.0 W | 265 24.6 33.2 58.0
2/28/24 - 1800 26.1 12.9 92 24.0 25.3 SW | 214 18.0 47.7 W | 275 25.4 33.2 58.0
2/28/24 - 1700 27.4 16.6 72 19.5 24.9 SSW | 199 12.8 42.9 S | 186 25.4 33.2 58.0
2/28/24 - 1600 28.7 16.0 65 18.5 25.4 WSW | 246 18.9 52.3 WNW | 286 25.4 33.2 58.0
2/28/24 - 1500 29.8 17.5 59 17.2 25.8 SW | 228 18.5 51.3 W | 269 25.4 33.2 58.0
2/28/24 - 1400 30.7 16.8 59 18.2 26.7 WSW | 258 25.6 50.8 WNW | 296 25.4 33.2 58.0
2/28/24 - 1300 31.4 20.9 49 14.5 26.3 SSW | 201 14.8 52.7 W | 267 25.4 33.2 58.0
2/28/24 - 1200 32.0 24.1 46 13.6 26.5 S | 177 9.3 27.2 SW | 229 25.4 33.2 58.0
2/28/24 - 1100 31.4 18.6 46 13.0 26.0 SW | 215 22.3 41.2 SSW | 202 25.4 32.9 58.0
2/28/24 - 1000 29.7 14.7 48 12.3 24.7 SW | 225 28.6 43.1 SW | 219 25.4 31.3 58.0
2/28/24 - 0900 29.1 11.2 46 11.1 24.0 SW | 227 43.2 50.1 SW | 230 25.4 29.4 58.0
2/28/24 - 0800 27.7 8.4 49 10.9 23.0 SW | 230 48.2 54.7 SW | 232 25.4 29.1 58.0
2/28/24 - 0700 25.9 6.2 51 10.2 21.7 SW | 229 46.5 58.0 SW | 218 25.4 29.1 58.0
2/28/24 - 0600 26.0 7.1 50 9.7 21.6 SW | 224 41.4 51.2 SW | 226 25.6 29.1 51.2
2/28/24 - 0500 26.2 7.9 49 9.5 21.8 SW | 229 39.6 51.1 WSW | 241 25.8 29.1 51.1
2/28/24 - 0400 26.8 10.0 45 8.5 22.0 SW | 227 32.2 48.6 SW | 233 26.4 29.1 48.6
2/28/24 - 0300 27.0 9.2 47 9.3 22.3 SW | 227 37.7 47.2 WSW | 243 26.5 29.1 47.2
2/28/24 - 0200 27.8 9.8 43 8.1 22.6 SW | 232 40.8 46.5 SW | 231 27.0 29.1 46.5
2/28/24 - 0100 28.5 11.1 37 5.7 22.7 SW | 233 39.0 43.0 SW | 225 28.2 29.1 43.0
2/28/24 - 0000 28.8 11.8 35 4.7 22.8 SW | 232 37.6 42.0 SW | 231 16.1 30.8 98.9
2/27/24 - 2300 28.5 11.4 40 7.0 22.9 SW | 228 37.5 44.7 SW | 228 16.1 30.8 98.9
2/27/24 - 2200 26.4 13.5 40 5.5 21.2 SW | 227 17.5 33.7 SSW | 212 16.1 30.8 98.9
2/27/24 - 2100 25.3 19.6 38 3.3 20.1 SSE | 164 4.6 11.0 E | 95 16.1 30.8 98.9
2/27/24 - 2000 25.3 13.9 42 5.6 20.5 E | 94 13.0 17.6 E | 91 16.1 30.8 98.9
2/27/24 - 1900 24.2 14.1 52 9.0 20.3 E | 89 9.9 13.5 E | 98 16.1 30.8 98.9
2/27/24 - 1800 24.9 16.5 52 9.6 20.9 ENE | 73 7.7 13.6 ENE | 69 16.1 30.8 98.9
2/27/24 - 1700 26.5 18.2 45 8.2 21.8 ENE | 58 7.9 11.8 NE | 40 16.1 30.8 98.9
2/27/24 - 1600 27.0 16.2 41 6.7 21.9 NE | 55 12.8 20.5 ENE | 59 16.1 30.8 98.9
2/27/24 - 1500 29.0 17.6 33 3.5 22.7 NE | 51 15.3 21.9 NE | 42 16.1 30.8 98.9
2/27/24 - 1400 30.2 19.1 28 1.2 23.2 NE | 51 15.4 26.1 NE | 39 16.1 30.8 98.9
2/27/24 - 1300 29.7 19.3 32 3.4 23.2 E | 82 13.3 22.7 ENE | 60 16.1 30.8 98.9
2/27/24 - 1200 27.8 17.0 40 6.6 22.4 ENE | 78 13.0 21.5 NNE | 30 16.1 29.2 98.9
2/27/24 - 1100 24.5 15.6 75 17.4 22.4 E | 79 8.2 15.8 NE | 39 16.1 26.1 98.9
2/27/24 - 1000 22.3 - 96 21.2 21.9 WSW | 254 - 10.7 WSW | 249 16.1 23.5 98.9
2/27/24 - 0900 19.2 5.3 94 17.8 18.7 W | 273 14.8 23.1 W | 266 16.1 20.7 98.9
2/27/24 - 0800 17.3 -2.5 93 15.6 16.8 W | 273 30.5 57.4 WSW | 254 16.1 20.7 98.9
2/27/24 - 0700 16.6 -4.5 94 15.2 16.2 W | 261 34.4 50.4 WSW | 255 16.1 20.7 98.9
Max 32.0 24.1 98 24.3 26.7 - 78.0 169.5 - 28.2 33.2 169.5
Avg 18.9 -0.9 84 13.9 17.6 - 34.7 79.8 - - - -
Min 9.9 -19.4 28 1.2 9.7 - 4.6 10.7 - 9.5 12.3 43.0

Last 365 Observations

Chair 1 Top - 9,875ft

Daily Data | America/Los_Angeles
as of 3/5/24 6:29 AM PST
Date Daily Max Temp (°F) Time of Max Temp Daily Min Temp (°F) Time of Min Temp Temp (°F) Daily Max Wind (mph) Time of Max Wind Max Wind Dir (°) Wind Spd (mph) Dew Pt (°F) Max RH (%) Min RH (%) Max Wet Bulb Temp (°F) Min Wet Bulb Temp (°F) Wet Bulb (°F) WetB Hrs <28F (hrs) Hrs <= 32F (hrs) Min Wind Chill (°F) Wind Chill Time
3/3/24 13.5 0001 9.7 0345 11.6 137.4 0805 SW | 223 48.4 9.9 94 91 13.2 9.5 11.4 24.0 24.0 -26.3 0805
3/2/24 19.5 0100 9.5 1750 13.0 169.5 0715 W | 274 47.0 11.4 97 91 19.2 9.3 12.7 24.0 24.0 -29.8 1304
3/1/24 22.0 1342 18.0 1859 19.6 117.4 2335 W | 270 28.4 18.7 98 96 21.7 17.6 19.2 24.0 24.0 -12.5 2335
2/29/24 24.2 1335 19.3 0001 21.9 104.6 2202 WSW | 255 25.2 19.8 99 69 24.0 18.9 21.2 24.0 24.0 -9.4 2214
2/28/24 33.2 1129 23.2 2315 27.3 58.6 2015 W | 275 27.2 15.3 99 34 27.2 21.3 23.9 24.0 23.1 1.1 2056
2/27/24 30.8 1234 16.1 0536 23.7 98.9 0034 SW | 230 - 11.3 98 25 24.3 15.8 20.5 24.0 24.0 -9.7 0554
2/26/24 24.4 1646 20.3 0001 22.3 114.7 2013 SSW | 213 32.6 21.8 99 94 24.2 20.0 22.0 - - -8.2 2356
2/25/24 33.4 1246 22.4 2354 28.5 59.5 2159 SSW | 206 19.7 12.0 100 21 27.0 21.5 24.2 24.0 21.4 -0.7 2326
2/24/24 39.6 1157 23.2 0001 31.0 56.0 2232 SSW | 208 14.0 9.4 81 23 31.2 20.4 25.1 20.7 15.7 7.5 2301
2/23/24 31.9 1416 17.8 0210 23.7 16.8 1827 E | 100 - 15.8 93 37 28.6 15.8 21.4 23.9 24.0 8.5 0921
2/22/24 24.1 1511 15.7 0508 19.6 30.6 0015 WSW | 243 9.8 17.8 98 82 23.4 15.4 19.0 24.0 24.0 -2.6 0014
2/21/24 19.9 1441 15.3 0701 17.8 67.9 0642 SW | 230 26.4 16.7 97 94 19.6 14.9 17.4 24.0 24.0 -12.0 0646
2/20/24 22.7 1523 16.8 0136 19.4 73.2 2345 W | 262 12.0 18.6 99 95 22.5 16.5 19.1 24.0 24.0 -6.8 2345
2/19/24 26.5 0054 17.2 2334 21.9 97.8 0532 WSW | 243 19.5 21.4 100 95 26.3 16.8 21.6 24.0 24.0 -6.7 1506
2/18/24 26.3 1437 18.5 0858 23.1 80.7 0219 SW | 225 22.0 22.3 99 90 26.0 18.0 22.7 24.0 24.0 -6.8 0830
2/17/24 28.5 0001 21.0 1854 24.7 77.0 1255 SSW | 194 18.2 20.5 98 64 26.3 20.7 23.3 24.0 24.0 -3.6 1534
2/16/24 35.2 1010 24.2 2108 29.8 60.8 0031 SSW | 211 24.9 16.1 94 35 29.7 20.0 25.7 20.7 18.8 4.0 0048
2/15/24 27.9 0001 16.2 0728 21.4 103.4 0646 SW | 222 31.0 13.0 97 32 23.1 15.8 19.3 24.0 24.0 -14.5 0719
2/14/24 23.4 1322 19.3 2341 21.5 103.9 2118 W | 263 34.8 13.6 97 46 21.4 16.6 19.4 24.0 24.0 -10.0 2117
2/13/24 27.9 1222 19.2 2142 23.4 67.3 1502 SSW | 211 33.9 7.6 97 21 22.1 16.8 19.6 24.0 24.0 -5.8 2147
2/12/24 39.3 1038 24.7 1901 27.8 51.9 1440 SW | 235 22.3 1.0 55 15 28.7 18.6 21.7 23.5 21.4 5.3 1929
2/11/24 37.7 1030 24.6 2247 30.0 16.3 2203 NE | 55 6.9 7.0 53 7 29.8 19.3 24.0 23.6 18.6 13.0 2316
2/10/24 28.9 2318 4.3 0712 12.5 46.1 0125 NE | 46 17.2 4.7 96 4 20.0 4.3 11.4 24.0 24.0 -20.0 0505
2/9/24 17.5 1514 8.9 2359 13.1 59.8 0624 SW | 220 26.5 11.5 96 91 17.2 8.7 12.8 24.0 24.0 -17.6 2307
2/8/24 22.7 1113 10.2 0239 13.9 65.9 0212 SW | 230 23.2 12.4 99 92 22.5 10.0 13.6 24.0 24.0 -19.5 0212
2/7/24 15.9 0331 11.4 2353 14.7 106.7 0927 WSW | 250 26.8 13.3 95 92 15.5 11.1 14.4 24.0 24.0 -18.4 0955
2/6/24 20.1 1138 14.9 2129 17.9 44.3 0858 SW | 227 18.1 16.9 97 94 19.8 14.6 17.6 24.0 24.0 -7.9 2353
2/5/24 20.4 0030 15.8 0733 18.3 81.0 0124 NE | 55 11.8 17.3 97 95 20.1 15.5 17.9 24.0 24.0 -7.5 0359
2/4/24 24.2 1557 16.7 0159 21.2 94.6 1933 S | 169 13.9 20.6 99 95 24.0 16.3 21.0 - - -5.2 2326
2/3/24 17.3 2358 10.8 0624 13.3 68.1 0121 S | 180 - 11.7 95 92 16.9 10.5 13.0 24.0 24.0 -18.9 0518
2/2/24 17.2 1400 12.6 2357 15.0 71.8 2021 S | 184 27.7 13.5 95 92 16.8 12.2 14.6 24.0 24.0 -16.4 2336
2/1/24 24.8 0306 15.7 2357 20.4 57.2 1404 W | 260 17.6 19.6 99 94 24.6 15.4 20.1 24.0 24.0 -7.3 2241
1/31/24 32.8 0035 22.8 2358 28.3 73.9 1619 SW | 214 16.4 17.6 98 39 27.5 22.5 25.0 24.0 23.0 1.6 1805
1/30/24 42.3 1044 32.2 2359 36.5 51.8 2121 SSW | 211 13.2 15.7 68 24 32.7 26.2 29.8 3.9 0.0 15.0 2121
1/29/24 44.6 1222 30.6 0713 36.1 20.6 2108 S | 178 4.0 22.5 75 41 36.5 28.1 31.2 0.0 2.6 22.8 0119
1/28/24 42.9 1403 33.2 0720 36.4 16.0 2305 NE | 46 - 24.0 70 50 36.3 29.8 31.9 0.0 0.0 24.7 2305
1/27/24 48.0 1359 36.1 0335 39.4 15.8 0722 ESE | 114 5.4 24.8 64 37 38.4 31.6 33.9 0.0 0.0 28.8 0656
1/26/24 43.5 1324 20.7 0219 33.1 22.6 0051 W | 271 6.0 21.4 89 24 36.4 17.3 29.2 8.1 8.2 5.9 0051
1/25/24 24.2 0001 15.5 0734 20.0 84.1 0248 W | 267 19.3 19.1 100 84 24.1 15.2 19.6 24.0 24.0 -10.3 0730
1/24/24 28.0 1523 19.0 0006 25.0 75.2 1805 SSW | 208 37.7 24.8 100 96 27.9 18.7 24.8 24.0 24.0 -6.9 0355
1/23/24 30.8 1311 17.0 2044 21.4 52.9 2356 SW | 224 - 20.9 100 95 30.6 16.7 21.2 22.8 24.0 -4.6 2356
1/22/24 28.7 1327 22.2 0423 24.7 65.1 0034 SSW | 207 9.1 24.5 100 98 28.6 22.0 24.5 23.5 24.0 -2.4 0034
1/21/24 25.6 1325 18.9 0025 23.1 62.4 1354 SW | 229 26.8 22.7 100 96 25.4 18.6 22.9 24.0 24.0 -3.9 0013
1/20/24 24.5 1051 19.2 2333 22.6 88.9 1455 W | 278 - 22.0 99 96 24.3 18.8 22.3 24.0 24.0 -5.9 1455
1/19/24 37.1 0304 22.4 2214 30.8 53.2 2205 SW | 222 - 15.6 97 32 30.0 21.6 26.1 18.0 11.3 -0.1 2205
1/18/24 38.1 1202 30.7 0104 35.3 42.4 2352 SW | 229 8.3 16.7 57 26 31.9 23.5 29.4 4.1 1.7 18.5 2357
1/17/24 32.4 2353 20.0 1250 24.4 96.1 0405 SW | 236 40.5 18.6 100 25 26.2 19.6 22.7 24.0 23.8 -7.3 1234
1/16/24 35.1 0916 24.2 2130 29.7 81.4 1238 WSW | 253 34.2 16.5 100 31 27.8 24.0 25.8 24.0 16.8 -0.2 2128
1/15/24 38.7 1440 22.6 0256 31.1 55.9 0746 SSW | 202 24.0 13.4 99 29 31.6 20.2 25.8 19.0 9.8 2.2 0308
1/14/24 26.7 1955 21.0 0833 23.7 94.4 0332 SSW | 212 39.1 23.2 100 97 26.6 20.7 23.4 24.0 24.0 -5.7 0633
1/13/24 30.5 0430 20.5 1959 24.5 100.3 2120 WSW | 254 36.0 22.3 99 71 27.6 20.1 23.6 24.0 24.0 -8.1 1949
1/12/24 27.3 0643 20.5 1937 23.7 75.8 1443 WSW | 244 33.8 6.8 80 30 24.5 16.3 19.7 24.0 24.0 -4.9 1904
1/11/24 23.2 1537 1.4 0713 13.6 83.3 0003 WSW | 241 23.8 -3.0 92 18 17.8 1.6 10.7 24.0 24.0 -23.3 0008
1/10/24 16.6 0008 10.3 0001 14.9 128.6 2033 SW | 221 57.3 11.1 94 58 15.8 10.0 14.1 24.0 24.0 -22.4 2351
1/9/24 29.6 0010 15.3 2310 23.7 89.5 1919 SW | 234 49.0 12.3 96 36 24.0 14.1 20.6 24.0 24.0 -13.9 2306
1/8/24 30.3 2313 1.7 0012 20.2 43.4 1354 NE | 47 18.0 3.6 93 13 25.3 1.8 17.1 24.0 24.0 -19.6 0008
1/7/24 7.8 1430 1.8 2344 4.3 27.3 1924 ENE | 72 11.5 -2.4 90 55 6.7 1.6 3.6 24.0 24.0 -20.3 1924
1/6/24 22.7 0423 4.3 2357 15.1 138.8 1413 W | 259 29.7 1.9 92 24 17.1 4.3 12.6 24.0 24.0 -25.9 1429
1/5/24 24.6 0109 15.8 0820 19.6 38.6 0137 S | 191 14.4 4.3 95 24 19.8 13.4 16.3 24.0 24.0 -4.3 0900
1/4/24 24.0 2358 10.1 0339 17.0 25.8 1516 NNE | 30 9.2 8.7 93 31 19.6 9.8 15.1 24.0 24.0 -8.0 0019
1/3/24 17.3 0002 11.0 0826 13.3 69.5 0908 NW | 306 24.8 11.5 95 91 16.9 10.7 12.9 - - -18.7 0843
1/2/24 25.2 1326 17.3 2359 22.2 79.4 0824 WNW | 291 29.5 13.6 94 54 21.7 16.8 19.8 24.0 24.0 -3.4 0705
1/1/24 30.6 1253 17.2 0613 22.2 14.6 0005 S | 187 1.5 12.6 86 52 26.4 15.8 19.6 24.0 24.0 6.0 0006
12/31/23 27.1 1040 14.8 0116 21.3 42.4 1631 SSW | 199 12.3 3.8 94 11 20.6 14.2 17.7 24.0 24.0 -2.1 1629
12/30/23 24.2 0005 17.4 2100 21.2 78.6 0437 WSW | 246 - 19.8 99 71 23.2 17.0 20.7 24.0 24.0 -5.5 0437
12/29/23 36.5 0014 23.8 0001 32.4 43.7 1615 SSW | 192 - 11.8 74 19 29.7 21.6 26.5 20.2 7.0 6.6 2354
12/28/23 39.6 1430 28.5 0118 33.9 53.0 0142 WSW | 258 16.8 20.3 94 36 33.6 27.2 29.4 3.4 8.6 9.4 0117
12/27/23 34.2 0236 25.2 2218 29.6 78.2 1616 SW | 218 17.8 1.0 82 19 27.9 20.3 22.8 24.0 22.5 5.4 1645
12/26/23 36.1 2311 28.0 0547 32.1 67.0 1212 SSW | 208 28.7 9.0 84 17 28.8 23.2 25.9 22.8 11.4 11.1 1623
12/25/23 31.8 1228 24.0 0732 28.5 43.7 1720 SSW | 194 - 27.4 100 67 31.8 23.9 28.0 10.0 24.0 6.1 0127
12/24/23 31.0 1302 20.2 0001 24.4 38.0 0305 SW | 222 - 24.3 100 99 30.9 20.0 24.2 21.6 24.0 0.3 0420
12/23/23 31.2 1316 17.9 0200 22.4 17.8 2325 S | 178 3.3 22.2 100 97 31.1 17.6 22.2 20.4 24.0 3.9 0154
12/22/23 31.3 1419 21.3 2358 25.4 23.8 1508 SW | 216 4.6 25.4 100 99 31.3 21.1 25.2 19.8 24.0 11.3 0121
12/21/23 27.4 1421 24.0 0545 25.9 22.0 1033 ENE | 64 6.7 25.8 100 100 27.3 23.9 25.7 24.0 24.0 11.6 0911
12/20/23 28.3 1213 24.0 0017 25.9 27.0 0001 SE | 124 - 25.9 100 100 28.1 23.9 25.8 23.8 24.0 7.5 0001
12/19/23 28.5 0040 24.1 2359 26.4 67.0 1113 WSW | 249 15.2 26.4 100 100 28.4 24.0 26.3 22.9 24.0 3.7 1113
12/18/23 38.7 0001 26.7 0217 30.4 77.3 2349 SSW | 204 16.0 27.7 100 20 31.7 26.1 29.5 2.6 21.4 5.9 2349
12/17/23 46.5 1044 37.0 0006 39.6 38.5 1336 SSW | 210 10.0 1.2 30 13 35.0 26.9 29.3 4.9 0.0 26.7 1412
12/16/23 44.8 1341 35.9 0454 39.4 42.1 0414 W | 270 8.2 -5.6 23 7 32.1 25.7 28.4 11.3 0.0 21.1 0414
12/15/23 44.2 1008 32.2 1936 36.8 51.4 0142 SSW | 209 - -2.6 31 6 32.3 23.4 27.1 15.7 0.0 16.7 0011
12/14/23 39.6 1134 26.0 0030 31.7 37.6 1402 SSW | 202 14.9 -6.5 33 11 29.2 19.7 23.3 23.6 14.1 11.4 0200
12/13/23 28.6 1349 15.6 0149 24.1 26.1 0102 E | 80 - 7.6 95 30 23.3 15.2 20.0 24.0 24.0 -3.1 0102
12/12/23 30.5 0244 16.6 2353 24.0 27.6 0159 W | 267 9.6 12.7 98 35 24.5 16.2 20.9 24.0 24.0 0.6 2118
12/11/23 38.1 1221 25.3 2327 33.5 54.5 1530 WSW | 240 15.4 2.6 59 8 28.8 20.9 25.7 20.7 7.1 15.0 1741
12/10/23 46.4 1050 36.5 2231 40.0 46.7 1802 SW | 215 21.0 8.0 60 10 34.4 26.8 30.6 3.0 0.0 22.0 2234
12/9/23 39.7 1800 31.5 0030 35.8 22.7 0339 WSW | 244 - 6.1 53 13 32.8 23.6 27.8 13.0 1.6 18.9 0339
12/8/23 35.2 1247 20.5 0030 28.7 50.5 0001 SW | 226 13.3 -11.6 38 8 25.5 15.5 20.9 24.0 19.5 -1.0 0006
12/7/23 22.7 0009 16.2 0754 20.0 93.7 1818 SSW | 208 38.4 17.7 98 26 22.4 15.8 19.4 24.0 24.0 -10.7 1818
12/6/23 38.1 0005 21.6 2157 29.6 104.9 2309 NW | 308 18.6 19.5 98 39 30.8 21.3 26.3 19.3 13.5 -7.1 2304
12/5/23 46.7 1229 31.8 0019 40.0 29.6 1326 SSW | 194 7.4 16.7 56 30 36.1 27.3 32.1 0.6 0.1 23.6 0045
12/4/23 39.6 1141 29.9 0700 33.8 28.6 0051 SSW | 207 11.6 15.0 56 29 32.1 24.8 28.0 12.8 3.5 18.6 0131
12/3/23 38.2 0910 23.9 0033 32.8 70.4 0015 SSW | 202 26.4 12.1 71 29 30.8 21.0 26.7 18.0 6.4 0.5 0025
12/2/23 28.7 1615 20.3 0001 24.2 87.5 2030 SSW | 204 43.2 11.8 91 35 24.6 18.2 20.9 24.0 24.0 -2.5 2030
12/1/23 24.5 1613 15.5 0547 20.0 80.7 0140 SSW | 211 31.7 16.3 97 58 22.2 15.1 18.9 24.0 24.0 -12.7 0436
11/30/23 22.0 1100 17.0 2357 18.9 58.8 2352 WSW | 240 32.0 16.5 96 73 20.0 16.6 18.2 24.0 24.0 -8.9 2328
11/29/23 32.8 1212 20.4 2029 24.3 53.3 0433 SSW | 208 15.0 10.7 88 26 26.2 17.4 20.7 - 23.7 -1.9 0444
11/28/23 34.9 1131 24.1 2340 28.5 49.5 1542 SSW | 204 15.0 -4.5 54 9 25.3 17.7 21.6 24.0 20.1 5.7 2147
11/27/23 30.8 1359 18.8 0545 24.0 16.6 1400 E | 82 5.1 -10.4 43 15 22.6 13.7 17.6 24.0 24.0 6.4 0011
11/26/23 30.6 1358 19.6 2359 25.1 19.2 1624 NE | 55 11.9 -10.9 43 9 23.3 15.5 18.5 24.0 24.0 5.3 2229
11/25/23 25.1 1244 15.2 0348 20.4 16.5 1919 ENE | 76 - -4.4 56 17 19.1 11.4 15.7 24.0 24.0 4.8 1919
11/24/23 25.2 1213 8.9 0651 16.5 16.6 0833 E | 82 4.6 10.4 96 40 20.5 8.7 15.0 24.0 24.0 -4.5 0738
11/23/23 39.1 0008 17.6 2359 28.9 52.6 0917 SW | 222 16.3 19.2 100 25 31.2 17.3 25.8 13.9 15.7 6.2 2254
11/22/23 47.9 1014 37.0 2323 42.0 38.0 1231 SSW | 206 11.1 6.8 40 16 34.9 28.8 31.5 0.0 0.0 25.3 2355
11/21/23 47.2 1117 36.2 0001 42.9 37.1 1108 S | 186 9.9 -1.6 27 7 34.5 25.6 31.0 4.5 0.0 27.9 0003
11/20/23 39.5 1447 28.4 0056 34.5 44.1 0211 E | 80 19.3 -13.6 20 8 28.5 20.1 24.6 23.2 7.5 12.0 0202
11/19/23 32.5 1910 16.1 0436 24.4 144.4 0023 SW | 236 26.1 12.9 100 11 29.3 15.8 21.8 23.4 23.7 -11.7 0234
11/18/23 27.0 1839 24.7 2359 26.0 118.8 2358 WSW | 254 16.8 26.0 100 100 26.8 24.6 25.8 24.0 24.0 -4.4 2358
11/17/23 29.7 1356 23.3 0104 26.3 30.4 2352 E | 83 6.5 26.3 100 99 29.6 23.1 26.2 20.3 24.0 9.3 2352
11/16/23 31.1 1428 23.7 2251 28.1 57.0 0631 S | 190 8.9 28.1 100 99 31.0 23.5 28.0 11.1 24.0 6.3 0631
11/15/23 37.1 1016 25.7 1730 31.6 41.7 2111 SW | 231 - 20.2 100 25 34.4 24.0 28.3 10.7 16.5 12.9 2340
11/14/23 36.9 1237 27.4 0058 32.1 38.0 1439 SW | 217 8.7 7.2 43 28 29.3 22.0 25.4 20.2 9.1 11.8 0415
11/13/23 34.8 1359 27.3 2340 30.6 39.2 0338 WNW | 289 12.7 8.1 51 27 28.0 22.4 24.5 24.0 17.2 11.2 0338
11/12/23 40.3 1118 29.2 2332 35.2 41.6 1239 W | 279 - 7.6 42 19 30.7 23.0 27.4 10.4 5.7 13.4 2252
11/11/23 45.3 1057 32.3 0158 37.5 51.0 0439 SW | 225 16.8 10.3 50 22 34.5 26.0 29.3 6.6 0.0 15.2 0305
11/10/23 44.4 1203 28.3 0041 33.4 40.2 0525 SSW | 213 15.4 0.3 46 11 33.0 20.8 25.3 18.8 11.3 12.4 0523
11/9/23 36.7 1140 19.6 0036 28.6 33.0 1253 WSW | 242 16.0 -6.4 54 8 26.6 15.8 21.2 24.0 18.4 5.0 0037
11/8/23 22.2 2233 16.3 0836 20.0 27.6 0418 NE | 48 15.4 9.4 99 39 20.6 15.4 17.4 23.8 23.8 -1.3 0657
11/7/23 27.1 0023 18.9 2333 22.3 67.5 0558 WSW | 256 16.9 21.9 100 97 26.9 18.6 22.0 24.0 24.0 -0.5 0835
11/6/23 34.4 0040 26.5 1313 29.5 55.8 0439 WNW | 303 15.2 27.5 100 60 32.1 26.3 28.7 8.3 22.3 6.4 1314
11/5/23 43.3 1235 33.5 2356 37.5 62.3 2355 W | 268 17.0 21.2 82 28 36.4 28.1 31.8 0.0 0.0 14.6 2355
11/4/23 48.9 1400 37.6 0058 42.9 56.2 1420 W | 264 16.7 25.6 66 36 39.2 32.5 36.2 0.0 0.0 24.5 0039
11/3/23 53.8 1207 39.8 0546 45.6 37.9 1421 SSW | 207 - 18.7 54 17 40.8 29.6 36.0 0.0 0.0 31.0 0437
11/2/23 50.2 1316 38.9 2345 45.0 42.0 1003 SSW | 198 - 5.4 41 13 36.0 30.4 33.0 0.0 0.0 31.2 1845
11/1/23 52.0 1454 37.2 0206 42.3 29.5 0032 SSW | 205 10.1 0.6 28 10 36.3 27.3 30.8 0.9 0.0 30.5 0522
10/31/23 48.8 1411 34.5 0456 41.2 14.9 0602 S | 174 3.4 -1.4 33 10 35.0 24.8 29.9 7.2 0.0 28.7 0603
10/30/23 45.3 1431 31.9 0107 38.4 19.8 1332 ENE | 65 9.2 -9.6 20 3 32.5 22.3 27.4 15.2 0.0 23.4 0353
10/29/23 33.2 1357 19.3 0611 27.2 33.7 0938 N | 0 17.3 -6.8 40 6 25.4 13.9 20.2 24.0 18.8 0.2 0624
10/28/23 30.6 1130 14.6 2214 24.2 66.6 0353 SSW | 211 25.2 5.2 86 14 25.8 13.3 19.7 24.0 24.0 -3.6 2114
10/27/23 39.8 1403 28.1 0023 32.5 54.9 1012 SW | 234 31.2 18.7 83 4 31.2 22.0 28.0 16.8 4.0 8.8 0024
10/26/23 40.5 1501 24.7 0904 31.7 90.5 0707 SW | 219 39.5 21.9 100 21 32.9 24.5 28.5 10.3 10.7 -0.4 0836
10/25/23 40.1 1337 26.2 0027 34.1 89.7 1727 W | 279 32.2 23.0 100 30 33.2 26.1 30.3 2.5 6.8 4.3 0041
10/24/23 48.4 1139 33.1 0125 39.7 65.6 2342 SW | 223 22.9 16.4 76 8 37.6 25.3 32.2 2.1 0.0 17.3 2342
10/23/23 40.2 1644 29.1 0633 33.7 30.0 0937 NE | 47 10.7 28.8 100 58 35.6 28.6 31.8 0.0 9.2 16.0 0937
10/22/23 39.7 0101 29.4 2300 34.4 78.7 1740 SW | 220 24.2 31.7 100 66 35.9 28.8 33.3 0.0 6.8 10.6 2035
10/21/23 53.4 1345 39.6 0059 45.5 42.5 0858 SW | 217 13.4 29.7 72 32 42.8 35.7 38.9 0.0 0.0 27.3 0055
10/20/23 54.0 1318 44.0 0059 48.9 57.5 1447 W | 268 15.5 29.1 66 32 42.7 37.1 40.5 0.0 0.0 35.7 2314
10/19/23 61.5 1457 47.8 0559 52.5 42.1 2250 SSW | 196 12.9 22.8 45 18 43.6 37.3 40.4 0.0 0.0 38.7 2350
10/18/23 58.6 1502 43.6 0710 50.8 19.6 1857 ENE | 74 6.7 21.8 42 19 44.2 35.6 39.3 0.0 0.0 37.8 0415
10/17/23 56.5 1445 45.8 0040 50.1 37.6 0520 SSW | 213 11.0 14.9 40 11 40.7 33.8 37.4 0.0 0.0 36.8 0519
10/16/23 55.3 1317 33.8 0101 50.6 54.1 1331 WSW | 245 19.3 17.4 65 10 43.4 27.2 38.4 3.1 0.0 20.3 0206
10/13/23 47.9 1119 32.9 0723 39.1 53.8 0718 SSW | 198 20.2 17.2 78 6 35.5 28.7 31.9 0.0 0.0 15.5 0720
10/12/23 41.5 1542 22.8 0727 31.7 20.1 0735 ENE | 63 10.5 18.1 89 35 33.7 20.6 27.2 11.2 10.1 7.9 0735
10/11/23 41.0 1420 24.0 0023 31.4 87.8 0546 WSW | 240 29.6 23.9 100 26 36.1 22.7 28.9 10.1 15.1 2.6 0802
10/10/23 44.4 1423 30.7 0041 37.9 75.0 0851 SW | 228 23.4 23.2 100 26 36.7 29.9 32.8 0.0 2.6 13.2 0007
10/9/23 54.1 0951 36.3 2331 40.4 68.4 1934 WSW | 246 19.3 30.3 88 39 48.1 32.2 36.4 0.0 0.0 21.5 0012
9/10/23 57.0 1349 46.1 1853 49.6 42.6 1609 S | 187 14.9 43.3 92 48 51.2 44.1 46.8 0.0 0.0 37.9 0746
9/9/23 56.8 1510 43.5 1013 50.0 56.3 1006 W | 268 10.0 43.7 94 61 51.0 42.6 47.2 0.0 0.0 30.9 1006
9/8/23 58.5 1413 43.9 0540 50.2 65.5 1455 W | 266 13.4 22.1 67 20 43.3 33.2 39.4 0.0 0.0 34.9 0635
9/7/23 57.0 1329 44.1 0232 49.2 54.7 1411 WSW | 253 9.8 26.8 70 18 44.9 35.0 40.2 0.0 0.0 34.1 2346
9/6/23 56.3 1348 43.2 0614 48.1 38.9 1506 WSW | 238 13.7 36.5 88 37 46.8 39.7 42.9 0.0 0.0 33.2 0418
9/5/23 57.4 1314 42.1 0546 49.0 37.0 2312 S | 187 - 32.9 85 26 46.6 36.5 41.9 0.0 0.0 33.4 0436
9/4/23 53.8 1502 32.3 0142 43.9 18.4 1545 E | 83 - 30.2 100 41 44.1 29.8 38.1 0.0 0.0 23.1 0246
9/3/23 44.1 0929 32.8 0017 37.6 74.7 1418 W | 270 14.9 37.2 100 80 42.6 32.7 37.5 0.0 0.0 17.1 1511
9/2/23 45.0 1239 39.1 0456 41.7 44.7 1304 NNE | 18 12.0 40.0 100 57 45.5 34.7 41.2 0.0 0.0 26.1 0541
9/1/23 50.2 1301 38.8 2156 44.0 66.8 1733 W | 275 15.7 23.3 74 26 40.1 33.2 36.2 0.0 0.0 27.9 2221
8/31/23 58.9 1244 43.9 2341 51.7 77.4 1846 WSW | 257 14.6 17.6 52 12 43.4 34.5 39.0 0.0 0.0 33.4 2356
8/30/23 68.3 1152 51.3 0539 60.0 47.7 1359 WSW | 237 9.5 17.0 31 7 45.9 38.4 42.6 0.0 0.0 - -
8/29/23 64.8 1518 51.2 0614 57.4 57.6 1143 SSW | 205 17.8 28.7 57 16 48.0 40.8 44.6 0.0 0.0 - -
8/28/23 69.3 1511 50.8 0234 59.2 40.9